Terminal Aerodrome Forecast
Issued by NWS

Home | Current Version | Previous Version | Graphics & Text | Print | Product List | Glossary On
Versions: 1 2 3 4 5 6 7 8 9 10 11 12 13 14 15 16 17 18 19 20 21 22
000
FTUS43 KMPX 210802 AAA
TAFAXN
TAF AMD
KAXN 210802Z 2108/2206 22008KT 5SM BR SKC
     FM211400 19008KT P6SM SCT010 SCT050
     FM211800 24010KT P6SM SCT150
     FM220000 25005KT P6SM SCT250=

USA.gov is the U.S. government's official web portal to all federal, state and local government web resources and services.